sensor_id;sensor_type;location;lat;lon;timestamp;pressure;altitude;pressure_sealevel;temperature;humidity
10060;BME280;5069;49.306;8.636;2023-06-10T00:00:10;100046.28;;;23.22;46.93
10060;BME280;5069;49.306;8.636;2023-06-10T00:03:16;100039.91;;;23.14;46.75
10060;BME280;5069;49.306;8.636;2023-06-10T00:06:18;100046.66;;;22.98;47.70
10060;BME280;5069;49.306;8.636;2023-06-10T00:09:20;100052.28;;;22.86;48.27
10060;BME280;5069;49.306;8.636;2023-06-10T00:12:24;100042.19;;;22.68;49.78
10060;BME280;5069;49.306;8.636;2023-06-10T00:15:25;100041.13;;;22.50;50.30
10060;BME280;5069;49.306;8.636;2023-06-10T00:18:27;100041.66;;;22.44;50.44
10060;BME280;5069;49.306;8.636;2023-06-10T00:21:33;100030.44;;;22.30;50.94
10060;BME280;5069;49.306;8.636;2023-06-10T00:24:38;100033.09;;;22.20;51.30
10060;BME280;5069;49.306;8.636;2023-06-10T00:27:40;100035.78;;;22.20;50.62
10060;BME280;5069;49.306;8.636;2023-06-10T00:30:42;100035.06;;;22.18;50.80
10060;BME280;5069;49.306;8.636;2023-06-10T00:33:44;100037.75;;;22.18;51.14
10060;BME280;5069;49.306;8.636;2023-06-10T00:36:45;100038.47;;;22.20;50.96
10060;BME280;5069;49.306;8.636;2023-06-10T00:39:47;100040.44;;;22.18;50.93
10060;BME280;5069;49.306;8.636;2023-06-10T00:42:48;100046.34;;;22.12;51.08
10060;BME280;5069;49.306;8.636;2023-06-10T00:45:51;100040.97;;;22.12;50.98
10060;BME280;5069;49.306;8.636;2023-06-10T00:48:53;100036.13;;;22.06;51.93
10060;BME280;5069;49.306;8.636;2023-06-10T00:51:54;100039.53;;;22.08;51.56
10060;BME280;5069;49.306;8.636;2023-06-10T00:54:56;100038.63;;;21.98;51.69
10060;BME280;5069;49.306;8.636;2023-06-10T00:57:57;100040.69;;;21.94;52.17
10060;BME280;5069;49.306;8.636;2023-06-10T01:00:59;100040.06;;;21.81;52.57
10060;BME280;5069;49.306;8.636;2023-06-10T01:04:01;100037.22;;;21.62;53.15
10060;BME280;5069;49.306;8.636;2023-06-10T01:10:14;100040.31;;;21.57;52.97
10060;BME280;5069;49.306;8.636;2023-06-10T01:13:18;100038.91;;;21.42;54.51
10060;BME280;5069;49.306;8.636;2023-06-10T01:16:19;100034.78;;;21.38;54.27
10060;BME280;5069;49.306;8.636;2023-06-10T01:19:21;100042.88;;;21.27;54.13
10060;BME280;5069;49.306;8.636;2023-06-10T01:22:26;100040.72;;;21.21;54.67
10060;BME280;5069;49.306;8.636;2023-06-10T01:25:49;100044.13;;;21.23;54.03
10060;BME280;5069;49.306;8.636;2023-06-10T01:29:04;100054.38;;;21.18;54.61
10060;BME280;5069;49.306;8.636;2023-06-10T01:32:17;100059.47;;;21.10;55.29
10060;BME280;5069;49.306;8.636;2023-06-10T01:35:21;100063.28;;;21.07;54.72
10060;BME280;5069;49.306;8.636;2023-06-10T01:38:26;100061.09;;;21.01;55.10
10060;BME280;5069;49.306;8.636;2023-06-10T01:41:28;100070.50;;;20.84;55.68
10060;BME280;5069;49.306;8.636;2023-06-10T01:44:30;100068.47;;;20.54;56.59
10060;BME280;5069;49.306;8.636;2023-06-10T01:47:33;100071.03;;;20.56;57.12
10060;BME280;5069;49.306;8.636;2023-06-10T01:50:34;100078.78;;;20.70;56.58
10060;BME280;5069;49.306;8.636;2023-06-10T01:53:38;100068.56;;;20.75;56.33
10060;BME280;5069;49.306;8.636;2023-06-10T01:56:39;100069.19;;;20.79;55.73
10060;BME280;5069;49.306;8.636;2023-06-10T01:59:41;100068.34;;;20.78;56.36
10060;BME280;5069;49.306;8.636;2023-06-10T02:02:45;100068.56;;;20.75;56.21
10060;BME280;5069;49.306;8.636;2023-06-10T02:05:47;100068.56;;;20.75;56.99
10060;BME280;5069;49.306;8.636;2023-06-10T02:08:50;100070.03;;;20.57;57.63
10060;BME280;5069;49.306;8.636;2023-06-10T02:11:51;100081.22;;;20.62;56.93
10060;BME280;5069;49.306;8.636;2023-06-10T02:14:53;100072.97;;;20.65;56.98
10060;BME280;5069;49.306;8.636;2023-06-10T02:17:54;100084.63;;;20.75;55.09
10060;BME280;5069;49.306;8.636;2023-06-10T02:20:57;100080.34;;;20.95;54.46
10060;BME280;5069;49.306;8.636;2023-06-10T02:24:00;100080.44;;;21.16;53.29
10060;BME280;5069;49.306;8.636;2023-06-10T02:27:02;100078.97;;;21.23;53.22
10060;BME280;5069;49.306;8.636;2023-06-10T02:30:05;100079.69;;;21.25;53.07
10060;BME280;5069;49.306;8.636;2023-06-10T02:33:09;100074.13;;;21.17;53.56
10060;BME280;5069;49.306;8.636;2023-06-10T02:36:15;100085.31;;;21.11;53.87
10060;BME280;5069;49.306;8.636;2023-06-10T02:39:17;100086.53;;;21.07;53.69
10060;BME280;5069;49.306;8.636;2023-06-10T02:42:19;100092.59;;;21.09;53.82
10060;BME280;5069;49.306;8.636;2023-06-10T02:45:22;100085.53;;;21.08;53.90
10060;BME280;5069;49.306;8.636;2023-06-10T02:48:25;100085.81;;;21.04;53.94
10060;BME280;5069;49.306;8.636;2023-06-10T02:51:26;100100.66;;;20.97;54.44
10060;BME280;5069;49.306;8.636;2023-06-10T02:54:33;100098.13;;;20.96;54.51
10060;BME280;5069;49.306;8.636;2023-06-10T02:57:35;100093.88;;;20.93;54.65
10060;BME280;5069;49.306;8.636;2023-06-10T03:00:38;100101.66;;;20.85;54.98
10060;BME280;5069;49.306;8.636;2023-06-10T03:03:43;100097.53;;;20.81;55.35
10060;BME280;5069;49.306;8.636;2023-06-10T03:06:48;100097.66;;;20.80;55.25
10060;BME280;5069;49.306;8.636;2023-06-10T03:09:55;100097.66;;;20.80;55.55
10060;BME280;5069;49.306;8.636;2023-06-10T03:12:57;100101.81;;;20.73;55.40
10060;BME280;5069;49.306;8.636;2023-06-10T03:15:59;100108.53;;;20.67;55.99
10060;BME280;5069;49.306;8.636;2023-06-10T03:19:02;100105.31;;;20.62;56.41
10060;BME280;5069;49.306;8.636;2023-06-10T03:22:09;100106.06;;;20.64;56.14
10060;BME280;5069;49.306;8.636;2023-06-10T03:25:15;100105.31;;;20.62;56.21
10060;BME280;5069;49.306;8.636;2023-06-10T03:28:21;100109.00;;;20.61;56.73
10060;BME280;5069;49.306;8.636;2023-06-10T03:31:23;100115.69;;;20.55;56.54
10060;BME280;5069;49.306;8.636;2023-06-10T03:34:28;100113.88;;;20.56;56.88
10060;BME280;5069;49.306;8.636;2023-06-10T03:37:30;100111.44;;;20.53;56.87
10060;BME280;5069;49.306;8.636;2023-06-10T03:40:31;100111.53;;;20.51;57.06
10060;BME280;5069;49.306;8.636;2023-06-10T03:43:33;100115.56;;;20.46;57.26
10060;BME280;5069;49.306;8.636;2023-06-10T03:46:36;100108.38;;;20.46;57.73
10060;BME280;5069;49.306;8.636;2023-06-10T03:49:38;100115.31;;;20.38;57.87
10060;BME280;5069;49.306;8.636;2023-06-10T03:52:41;100121.03;;;20.33;58.20
10060;BME280;5069;49.306;8.636;2023-06-10T03:55:43;100119.16;;;20.22;58.87
10060;BME280;5069;49.306;8.636;2023-06-10T03:58:46;100117.09;;;20.26;58.50
10060;BME280;5069;49.306;8.636;2023-06-10T04:01:48;100116.13;;;20.27;58.65
10060;BME280;5069;49.306;8.636;2023-06-10T04:04:50;100119.53;;;20.29;58.46
10060;BME280;5069;49.306;8.636;2023-06-10T04:07:52;100116.22;;;20.14;59.08
10060;BME280;5069;49.306;8.636;2023-06-10T04:10:54;100120.13;;;20.10;59.27
10060;BME280;5069;49.306;8.636;2023-06-10T04:13:56;100125.22;;;20.13;59.17
10060;BME280;5069;49.306;8.636;2023-06-10T04:16:58;100118.78;;;20.16;59.37
10060;BME280;5069;49.306;8.636;2023-06-10T04:20:01;100129.00;;;20.22;59.35
10060;BME280;5069;49.306;8.636;2023-06-10T04:23:02;100127.44;;;20.31;58.73
10060;BME280;5069;49.306;8.636;2023-06-10T04:26:05;100125.41;;;20.34;58.74
10060;BME280;5069;49.306;8.636;2023-06-10T04:29:07;100128.56;;;20.39;58.78
10060;BME280;5069;49.306;8.636;2023-06-10T04:32:09;100129.69;;;20.48;58.32
10060;BME280;5069;49.306;8.636;2023-06-10T04:35:12;100135.53;;;20.53;58.79
10060;BME280;5069;49.306;8.636;2023-06-10T04:38:15;100139.53;;;20.58;58.62
10060;BME280;5069;49.306;8.636;2023-06-10T04:41:17;100146.00;;;20.67;58.50
10060;BME280;5069;49.306;8.636;2023-06-10T04:44:19;100137.97;;;20.78;57.39
10060;BME280;5069;49.306;8.636;2023-06-10T04:47:21;100146.13;;;20.77;57.74
10060;BME280;5069;49.306;8.636;2023-06-10T04:50:23;100138.69;;;20.80;57.56
10060;BME280;5069;49.306;8.636;2023-06-10T04:53:24;100146.34;;;20.85;58.18
10060;BME280;5069;49.306;8.636;2023-06-10T04:56:26;100140.66;;;20.89;58.23
10060;BME280;5069;49.306;8.636;2023-06-10T04:59:27;100146.09;;;20.99;57.76
10060;BME280;5069;49.306;8.636;2023-06-10T05:02:29;100146.09;;;20.99;57.86
10060;BME280;5069;49.306;8.636;2023-06-10T05:05:31;100144.88;;;20.92;58.03
10060;BME280;5069;49.306;8.636;2023-06-10T05:08:33;100154.75;;;20.91;58.10
10060;BME280;5069;49.306;8.636;2023-06-10T05:11:34;100156.81;;;20.99;57.73
10060;BME280;5069;49.306;8.636;2023-06-10T05:14:36;100161.94;;;21.02;58.10
10060;BME280;5069;49.306;8.636;2023-06-10T05:17:37;100157.94;;;21.19;57.73
10060;BME280;5069;49.306;8.636;2023-06-10T05:20:39;100165.22;;;21.28;57.43
10060;BME280;5069;49.306;8.636;2023-06-10T05:23:41;100162.41;;;21.40;56.57
10060;BME280;5069;49.306;8.636;2023-06-10T05:26:42;100156.16;;;21.51;55.84
10060;BME280;5069;49.306;8.636;2023-06-10T05:29:44;100161.47;;;21.62;55.44
10060;BME280;5069;49.306;8.636;2023-06-10T05:32:46;100163.88;;;21.65;55.37
10060;BME280;5069;49.306;8.636;2023-06-10T05:35:48;100167.78;;;21.72;55.24
10060;BME280;5069;49.306;8.636;2023-06-10T05:38:49;100171.44;;;21.71;55.19
10060;BME280;5069;49.306;8.636;2023-06-10T05:41:51;100167.53;;;21.75;55.09
10060;BME280;5069;49.306;8.636;2023-06-10T05:44:52;100164.84;;;21.75;55.42
10060;BME280;5069;49.306;8.636;2023-06-10T05:47:54;100175.91;;;21.82;55.31
10060;BME280;5069;49.306;8.636;2023-06-10T05:50:55;100173.06;;;21.95;55.19
10060;BME280;5069;49.306;8.636;2023-06-10T05:53:57;100182.53;;;22.10;54.77
10060;BME280;5069;49.306;8.636;2023-06-10T05:56:58;100183.44;;;22.20;54.27
10060;BME280;5069;49.306;8.636;2023-06-10T06:00:00;100177.56;;;22.26;54.08
10060;BME280;5069;49.306;8.636;2023-06-10T06:03:12;100179.72;;;22.32;54.45
10060;BME280;5069;49.306;8.636;2023-06-10T06:06:14;100187.31;;;22.48;53.63
10060;BME280;5069;49.306;8.636;2023-06-10T06:09:15;100181.59;;;22.41;53.07
10060;BME280;5069;49.306;8.636;2023-06-10T06:12:17;100188.16;;;22.07;53.84
10060;BME280;5069;49.306;8.636;2023-06-10T06:15:19;100188.22;;;21.96;55.44
10060;BME280;5069;49.306;8.636;2023-06-10T06:18:20;100187.69;;;22.22;54.96
10060;BME280;5069;49.306;8.636;2023-06-10T06:21:22;100185.78;;;22.34;54.06
10060;BME280;5069;49.306;8.636;2023-06-10T06:24:23;100180.69;;;22.52;54.19
10060;BME280;5069;49.306;8.636;2023-06-10T06:27:27;100186.38;;;22.79;53.63
10060;BME280;5069;49.306;8.636;2023-06-10T06:30:29;100188.97;;;22.90;54.17
10060;BME280;5069;49.306;8.636;2023-06-10T06:33:31;100192.47;;;23.12;53.66
10060;BME280;5069;49.306;8.636;2023-06-10T06:36:34;100193.75;;;23.17;53.00
10060;BME280;5069;49.306;8.636;2023-06-10T06:39:36;100193.34;;;23.31;52.55
10060;BME280;5069;49.306;8.636;2023-06-10T06:42:38;100198.47;;;23.34;52.55
10060;BME280;5069;49.306;8.636;2023-06-10T06:46:17;100195.94;;;23.42;52.46
10060;BME280;5069;49.306;8.636;2023-06-10T06:49:19;100204.06;;;23.52;52.38
10060;BME280;5069;49.306;8.636;2023-06-10T06:52:20;100204.50;;;23.67;51.94
10060;BME280;5069;49.306;8.636;2023-06-10T06:55:23;100203.97;;;23.73;52.24
10060;BME280;5069;49.306;8.636;2023-06-10T06:58:26;100205.06;;;23.61;52.10
10060;BME280;5069;49.306;8.636;2023-06-10T07:01:28;100205.38;;;23.67;52.43
10060;BME280;5069;49.306;8.636;2023-06-10T07:04:29;100201.41;;;23.81;52.06
10060;BME280;5069;49.306;8.636;2023-06-10T07:07:31;100196.16;;;23.89;51.71
10060;BME280;5069;49.306;8.636;2023-06-10T07:10:33;100200.00;;;23.96;51.56
10060;BME280;5069;49.306;8.636;2023-06-10T07:13:34;100203.09;;;24.11;51.43
10060;BME280;5069;49.306;8.636;2023-06-10T07:16:36;100204.00;;;24.31;51.92
10060;BME280;5069;49.306;8.636;2023-06-10T07:19:37;100196.59;;;24.42;50.90
10060;BME280;5069;49.306;8.636;2023-06-10T07:22:41;100193.44;;;24.56;50.40
10060;BME280;5069;49.306;8.636;2023-06-10T07:25:42;100199.63;;;24.76;50.17
10060;BME280;5069;49.306;8.636;2023-06-10T07:28:44;100194.25;;;24.76;50.00
10060;BME280;5069;49.306;8.636;2023-06-10T07:31:45;100200.75;;;24.83;49.36
10060;BME280;5069;49.306;8.636;2023-06-10T07:34:47;100197.06;;;24.75;49.58
10060;BME280;5069;49.306;8.636;2023-06-10T07:37:49;100193.09;;;24.88;49.67
10060;BME280;5069;49.306;8.636;2023-06-10T07:40:50;100193.16;;;25.06;49.05
10060;BME280;5069;49.306;8.636;2023-06-10T07:43:55;100187.50;;;25.27;48.80
10060;BME280;5069;49.306;8.636;2023-06-10T07:46:57;100186.38;;;25.47;47.63
10060;BME280;5069;49.306;8.636;2023-06-10T07:49:59;100187.38;;;25.46;47.52
10060;BME280;5069;49.306;8.636;2023-06-10T07:53:01;100190.19;;;25.54;47.22
10060;BME280;5069;49.306;8.636;2023-06-10T07:56:03;100181.81;;;25.75;46.22
10060;BME280;5069;49.306;8.636;2023-06-10T07:59:05;100179.72;;;25.69;47.00
10060;BME280;5069;49.306;8.636;2023-06-10T08:02:06;100178.69;;;25.79;46.68
10060;BME280;5069;49.306;8.636;2023-06-10T08:05:08;100185.75;;;25.98;46.71
10060;BME280;5069;49.306;8.636;2023-06-10T08:08:10;100185.38;;;26.11;46.76
10060;BME280;5069;49.306;8.636;2023-06-10T08:11:12;100180.66;;;26.13;45.66
10060;BME280;5069;49.306;8.636;2023-06-10T08:14:13;100189.25;;;26.08;46.16
10060;BME280;5069;49.306;8.636;2023-06-10T08:17:15;100187.06;;;25.94;45.61
10060;BME280;5069;49.306;8.636;2023-06-10T08:20:17;100182.66;;;26.11;46.24
10060;BME280;5069;49.306;8.636;2023-06-10T08:23:19;100184.53;;;26.28;45.23
10060;BME280;5069;49.306;8.636;2023-06-10T08:26:21;100181.91;;;26.62;44.36
10060;BME280;5069;49.306;8.636;2023-06-10T08:29:23;100178.41;;;26.69;44.58
10060;BME280;5069;49.306;8.636;2023-06-10T08:32:24;100179.78;;;26.73;43.93
10060;BME280;5069;49.306;8.636;2023-06-10T08:35:26;100176.19;;;26.65;44.51
10060;BME280;5069;49.306;8.636;2023-06-10T08:38:27;100172.53;;;26.48;44.00
10060;BME280;5069;49.306;8.636;2023-06-10T08:41:30;100175.34;;;26.64;43.74
10060;BME280;5069;49.306;8.636;2023-06-10T08:44:36;100177.88;;;26.92;43.92
10060;BME280;5069;49.306;8.636;2023-06-10T08:47:42;100175.41;;;26.81;43.59
10060;BME280;5069;49.306;8.636;2023-06-10T08:50:47;100175.41;;;27.06;43.34
10060;BME280;5069;49.306;8.636;2023-06-10T08:53:53;100181.59;;;27.33;42.49
10060;BME280;5069;49.306;8.636;2023-06-10T08:56:57;100170.78;;;27.41;42.08
10060;BME280;5069;49.306;8.636;2023-06-10T09:00:00;100165.78;;;27.54;42.07
10060;BME280;5069;49.306;8.636;2023-06-10T09:03:02;100164.31;;;27.68;42.42
10060;BME280;5069;49.306;8.636;2023-06-10T09:06:07;100163.13;;;27.78;42.16
10060;BME280;5069;49.306;8.636;2023-06-10T09:09:08;100159.22;;;27.73;41.61
10060;BME280;5069;49.306;8.636;2023-06-10T09:12:11;100161.22;;;27.54;42.23
10060;BME280;5069;49.306;8.636;2023-06-10T09:15:13;100168.34;;;27.64;42.20
10060;BME280;5069;49.306;8.636;2023-06-10T09:18:16;100158.56;;;27.79;41.65
10060;BME280;5069;49.306;8.636;2023-06-10T09:21:17;100160.53;;;27.52;41.51
10060;BME280;5069;49.306;8.636;2023-06-10T09:24:22;100158.00;;;27.09;42.71
10060;BME280;5069;49.306;8.636;2023-06-10T09:27:25;100157.44;;;27.47;42.33
10060;BME280;5069;49.306;8.636;2023-06-10T09:33:30;100149.75;;;28.09;41.40
10060;BME280;5069;49.306;8.636;2023-06-10T09:36:33;100137.56;;;28.46;40.07
10060;BME280;5069;49.306;8.636;2023-06-10T09:39:34;100145.97;;;28.67;40.68
10060;BME280;5069;49.306;8.636;2023-06-10T09:42:38;100140.59;;;28.51;39.63
10060;BME280;5069;49.306;8.636;2023-06-10T09:45:39;100140.94;;;28.48;40.64
10060;BME280;5069;49.306;8.636;2023-06-10T09:48:42;100141.75;;;28.56;40.42
10060;BME280;5069;49.306;8.636;2023-06-10T09:51:52;100141.56;;;28.66;39.24
10060;BME280;5069;49.306;8.636;2023-06-10T09:54:55;100135.19;;;28.34;39.88
10060;BME280;5069;49.306;8.636;2023-06-10T09:58:00;100133.00;;;28.30;39.81
10060;BME280;5069;49.306;8.636;2023-06-10T10:01:11;100137.22;;;28.32;39.81
10060;BME280;5069;49.306;8.636;2023-06-10T10:04:13;100133.66;;;27.91;40.08
10060;BME280;5069;49.306;8.636;2023-06-10T10:07:14;100130.13;;;28.07;40.55
10060;BME280;5069;49.306;8.636;2023-06-10T10:10:17;100121.66;;;28.26;39.46
10060;BME280;5069;49.306;8.636;2023-06-10T10:13:20;100117.00;;;28.59;38.95
10060;BME280;5069;49.306;8.636;2023-06-10T10:16:29;100111.78;;;28.50;39.40
10060;BME280;5069;49.306;8.636;2023-06-10T10:19:38;100107.38;;;28.49;39.47
10060;BME280;5069;49.306;8.636;2023-06-10T10:22:43;100110.88;;;28.82;39.17
10060;BME280;5069;49.306;8.636;2023-06-10T10:25:51;100110.28;;;28.94;38.69
10060;BME280;5069;49.306;8.636;2023-06-10T10:29:05;100096.16;;;28.60;39.18
10060;BME280;5069;49.306;8.636;2023-06-10T10:32:10;100102.25;;;28.54;39.84
10060;BME280;5069;49.306;8.636;2023-06-10T10:35:23;100097.47;;;28.80;38.30
10060;BME280;5069;49.306;8.636;2023-06-10T10:38:24;100095.03;;;29.24;36.98
10060;BME280;5069;49.306;8.636;2023-06-10T10:41:26;100088.34;;;29.43;36.06
10060;BME280;5069;49.306;8.636;2023-06-10T10:44:28;100093.06;;;29.72;35.00
10060;BME280;5069;49.306;8.636;2023-06-10T10:47:31;100094.69;;;30.04;35.28
10060;BME280;5069;49.306;8.636;2023-06-10T10:50:34;100096.38;;;30.05;34.39
10060;BME280;5069;49.306;8.636;2023-06-10T10:53:39;100096.66;;;30.10;35.13
10060;BME280;5069;49.306;8.636;2023-06-10T10:57:34;100088.22;;;30.05;34.82
10060;BME280;5069;49.306;8.636;2023-06-10T11:00:28;100093.50;;;30.21;33.55
10060;BME280;5069;49.306;8.636;2023-06-10T11:03:30;100094.44;;;30.28;33.97
10060;BME280;5069;49.306;8.636;2023-06-10T11:06:33;100096.03;;;30.37;33.72
10060;BME280;5069;49.306;8.636;2023-06-10T11:09:34;100084.13;;;30.38;33.27
10060;BME280;5069;49.306;8.636;2023-06-10T11:15:48;100076.81;;;30.38;33.01
10060;BME280;5069;49.306;8.636;2023-06-10T11:18:53;100086.09;;;30.44;33.05
10060;BME280;5069;49.306;8.636;2023-06-10T11:21:59;100073.94;;;30.55;32.42
10060;BME280;5069;49.306;8.636;2023-06-10T11:25:01;100071.94;;;30.34;33.10
10060;BME280;5069;49.306;8.636;2023-06-10T11:28:17;100072.50;;;30.44;32.32
10060;BME280;5069;49.306;8.636;2023-06-10T11:31:20;100071.78;;;30.65;32.27
10060;BME280;5069;49.306;8.636;2023-06-10T11:34:23;100071.59;;;30.66;32.45
10060;BME280;5069;49.306;8.636;2023-06-10T11:37:27;100076.66;;;30.84;31.91
10060;BME280;5069;49.306;8.636;2023-06-10T11:40:29;100066.34;;;30.79;31.72
10060;BME280;5069;49.306;8.636;2023-06-10T11:43:31;100068.38;;;30.92;31.51
10060;BME280;5069;49.306;8.636;2023-06-10T11:46:33;100073.25;;;30.97;31.83
10060;BME280;5069;49.306;8.636;2023-06-10T11:49:35;100069.31;;;31.14;31.30
10060;BME280;5069;49.306;8.636;2023-06-10T11:52:38;100067.28;;;31.23;30.69
10060;BME280;5069;49.306;8.636;2023-06-10T11:55:44;100060.75;;;31.17;30.46
10060;BME280;5069;49.306;8.636;2023-06-10T11:58:55;100058.50;;;31.21;31.02
10060;BME280;5069;49.306;8.636;2023-06-10T12:01:57;100062.91;;;31.43;30.69
10060;BME280;5069;49.306;8.636;2023-06-10T12:05:10;100061.03;;;31.43;31.23
10060;BME280;5069;49.306;8.636;2023-06-10T12:08:12;100052.63;;;31.59;31.13
10060;BME280;5069;49.306;8.636;2023-06-10T12:11:14;100064.88;;;31.70;29.87
10060;BME280;5069;49.306;8.636;2023-06-10T12:14:16;100060.28;;;31.71;30.02
10060;BME280;5069;49.306;8.636;2023-06-10T12:17:21;100055.34;;;31.81;29.44
10060;BME280;5069;49.306;8.636;2023-06-10T12:20:31;100058.19;;;31.73;29.57
10060;BME280;5069;49.306;8.636;2023-06-10T12:23:35;100056.00;;;31.62;29.87
10060;BME280;5069;49.306;8.636;2023-06-10T12:26:42;100055.63;;;31.65;29.85
10060;BME280;5069;49.306;8.636;2023-06-10T12:29:52;100047.38;;;31.58;31.10
10060;BME280;5069;49.306;8.636;2023-06-10T12:32:55;100048.88;;;31.61;31.51
10060;BME280;5069;49.306;8.636;2023-06-10T12:35:57;100055.69;;;31.71;30.15
10060;BME280;5069;49.306;8.636;2023-06-10T12:39:03;100051.63;;;31.67;29.45
10060;BME280;5069;49.306;8.636;2023-06-10T12:42:05;100063.25;;;31.76;30.32
10060;BME280;5069;49.306;8.636;2023-06-10T12:45:10;100053.53;;;31.67;29.98
10060;BME280;5069;49.306;8.636;2023-06-10T12:51:22;100048.84;;;32.10;29.08
10060;BME280;5069;49.306;8.636;2023-06-10T12:54:23;100051.09;;;31.99;29.59
10060;BME280;5069;49.306;8.636;2023-06-10T12:57:25;100042.44;;;31.96;29.42
10060;BME280;5069;49.306;8.636;2023-06-10T13:00:27;100059.09;;;31.80;29.38
10060;BME280;5069;49.306;8.636;2023-06-10T13:03:31;100049.28;;;31.85;29.70
10060;BME280;5069;49.306;8.636;2023-06-10T13:06:32;100049.50;;;31.84;29.41
10060;BME280;5069;49.306;8.636;2023-06-10T13:09:37;100051.72;;;32.23;29.55
10060;BME280;5069;49.306;8.636;2023-06-10T13:12:39;100034.31;;;32.24;29.52
10060;BME280;5069;49.306;8.636;2023-06-10T13:15:48;100043.28;;;31.96;30.06
10060;BME280;5069;49.306;8.636;2023-06-10T13:18:53;100049.38;;;32.20;29.59
10060;BME280;5069;49.306;8.636;2023-06-10T13:21:55;100046.09;;;32.65;29.21
10060;BME280;5069;49.306;8.636;2023-06-10T13:25:01;100038.63;;;32.46;29.23
10060;BME280;5069;49.306;8.636;2023-06-10T13:28:02;100036.56;;;32.55;29.55
10060;BME280;5069;49.306;8.636;2023-06-10T13:31:04;100025.69;;;32.61;28.52
10060;BME280;5069;49.306;8.636;2023-06-10T13:34:06;100034.50;;;32.57;29.32
10060;BME280;5069;49.306;8.636;2023-06-10T13:37:07;100030.56;;;32.31;29.11
10060;BME280;5069;49.306;8.636;2023-06-10T13:40:09;100033.72;;;32.07;29.74
10060;BME280;5069;49.306;8.636;2023-06-10T13:43:11;100021.47;;;31.47;30.93
10060;BME280;5069;49.306;8.636;2023-06-10T13:46:14;100018.75;;;31.69;30.50
10060;BME280;5069;49.306;8.636;2023-06-10T13:49:16;100021.28;;;31.98;28.95
10060;BME280;5069;49.306;8.636;2023-06-10T13:52:17;100021.22;;;32.54;28.96
10060;BME280;5069;49.306;8.636;2023-06-10T13:55:19;100024.72;;;32.41;28.51
10060;BME280;5069;49.306;8.636;2023-06-10T13:58:22;100020.91;;;32.29;28.62
10060;BME280;5069;49.306;8.636;2023-06-10T14:01:23;100019.59;;;32.59;27.70
10060;BME280;5069;49.306;8.636;2023-06-10T14:04:25;100017.56;;;32.68;28.22
10060;BME280;5069;49.306;8.636;2023-06-10T14:07:27;100001.91;;;32.96;28.04
10060;BME280;5069;49.306;8.636;2023-06-10T14:10:28;100001.91;;;32.96;26.71
10060;BME280;5069;49.306;8.636;2023-06-10T14:13:30;100001.91;;;32.96;26.24
10060;BME280;5069;49.306;8.636;2023-06-10T14:16:31;100005.47;;;32.90;26.75
10060;BME280;5069;49.306;8.636;2023-06-10T14:19:33;100005.75;;;33.08;25.55
10060;BME280;5069;49.306;8.636;2023-06-10T14:22:34;99997.69;;;32.94;26.49
10060;BME280;5069;49.306;8.636;2023-06-10T14:25:36;99997.69;;;32.87;26.32
10060;BME280;5069;49.306;8.636;2023-06-10T14:28:37;99997.69;;;32.87;26.42
10060;BME280;5069;49.306;8.636;2023-06-10T14:31:39;99988.88;;;32.85;26.90
10060;BME280;5069;49.306;8.636;2023-06-10T14:34:41;99989.81;;;33.18;26.67
10060;BME280;5069;49.306;8.636;2023-06-10T14:37:43;99986.06;;;33.26;26.36
10060;BME280;5069;49.306;8.636;2023-06-10T14:40:44;99982.25;;;33.27;27.08
10060;BME280;5069;49.306;8.636;2023-06-10T14:43:46;99975.75;;;33.28;26.69
10060;BME280;5069;49.306;8.636;2023-06-10T14:46:47;99978.91;;;33.38;26.52
10060;BME280;5069;49.306;8.636;2023-06-10T14:49:49;99969.72;;;32.72;27.02
10060;BME280;5069;49.306;8.636;2023-06-10T14:52:51;99967.03;;;32.85;27.82
10060;BME280;5069;49.306;8.636;2023-06-10T14:55:52;99967.28;;;32.97;27.84
10060;BME280;5069;49.306;8.636;2023-06-10T14:58:54;99972.75;;;33.16;27.68
10060;BME280;5069;49.306;8.636;2023-06-10T15:01:55;99958.34;;;33.49;27.42
10060;BME280;5069;49.306;8.636;2023-06-10T15:04:57;99962.09;;;33.61;27.25
10060;BME280;5069;49.306;8.636;2023-06-10T15:07:58;99962.09;;;33.61;27.35
10060;BME280;5069;49.306;8.636;2023-06-10T15:11:00;99963.59;;;33.83;27.02
10060;BME280;5069;49.306;8.636;2023-06-10T15:14:03;99966.09;;;33.39;27.49
10060;BME280;5069;49.306;8.636;2023-06-10T15:17:04;99956.66;;;33.48;27.41
10060;BME280;5069;49.306;8.636;2023-06-10T15:20:06;99975.34;;;33.51;27.27
10060;BME280;5069;49.306;8.636;2023-06-10T15:23:08;99961.59;;;33.05;28.06
10060;BME280;5069;49.306;8.636;2023-06-10T15:26:10;99948.84;;;33.25;27.93
10060;BME280;5069;49.306;8.636;2023-06-10T15:29:11;99948.84;;;33.25;27.63
10060;BME280;5069;49.306;8.636;2023-06-10T15:32:13;99948.84;;;33.45;27.64
10060;BME280;5069;49.306;8.636;2023-06-10T15:35:19;99939.16;;;33.95;26.49
10060;BME280;5069;49.306;8.636;2023-06-10T15:38:21;99948.19;;;33.95;26.18
10060;BME280;5069;49.306;8.636;2023-06-10T15:41:23;99947.34;;;33.95;25.91
10060;BME280;5069;49.306;8.636;2023-06-10T15:44:24;99939.59;;;33.92;25.99
10060;BME280;5069;49.306;8.636;2023-06-10T15:47:26;99939.75;;;34.17;25.93
10060;BME280;5069;49.306;8.636;2023-06-10T15:50:28;99940.16;;;34.14;25.93
10060;BME280;5069;49.306;8.636;2023-06-10T15:53:29;99933.28;;;33.78;26.60
10060;BME280;5069;49.306;8.636;2023-06-10T15:56:31;99938.97;;;33.31;27.17
10060;BME280;5069;49.306;8.636;2023-06-10T15:59:32;99923.22;;;33.59;27.25
10060;BME280;5069;49.306;8.636;2023-06-10T16:02:34;99928.44;;;33.67;26.68
10060;BME280;5069;49.306;8.636;2023-06-10T16:05:37;99923.84;;;33.28;27.36
10060;BME280;5069;49.306;8.636;2023-06-10T16:08:39;99930.56;;;33.39;27.35
10060;BME280;5069;49.306;8.636;2023-06-10T16:11:40;99925.53;;;33.75;26.68
10060;BME280;5069;49.306;8.636;2023-06-10T16:14:42;99922.56;;;33.57;27.04
10060;BME280;5069;49.306;8.636;2023-06-10T16:17:43;99919.22;;;33.29;27.72
10060;BME280;5069;49.306;8.636;2023-06-10T16:20:45;99916.91;;;33.52;26.97
10060;BME280;5069;49.306;8.636;2023-06-10T16:23:46;99920.91;;;33.76;27.13